Time;durP1;ratioP1;P1;durP2;ratioP2;P2;SDS_P1;SDS_P2;PMS_P1;PMS_P2;Temp;Humidity;BMP_temperature;BMP_pressure;BME280_temperature;BME280_humidity;BME280_pressure;Samples;Min_cycle;Max_cycle;Signal;HPM_P1;HPM_P2
2021/09/21 00:01:40;;;;;;;5.30;4.67;;;;;;;;;;5051354;28;20410;-45
2021/09/21 00:04:06;;;;;;;5.47;4.80;;;;;;;;;;5051234;28;20452;-45
2021/09/21 00:06:32;;;;;;;8.33;4.80;;;;;;;;;;5051472;28;20425;-44
2021/09/21 00:08:58;;;;;;;5.47;4.97;;;;;;;;;;5051201;28;20482;-45
2021/09/21 00:11:24;;;;;;;5.70;4.60;;;;;;;;;;5051216;28;20438;-45
2021/09/21 00:13:50;;;;;;;5.23;4.67;;;;;;;;;;5051010;28;20402;-46
2021/09/21 00:16:17;;;;;;;5.40;4.90;;;;;;;;;;5051175;28;20518;-46
2021/09/21 00:18:43;;;;;;;6.03;4.87;;;;;;;;;;5054706;28;20548;-48
2021/09/21 00:21:10;;;;;;;6.57;4.33;;;;;;;;;;5055116;28;20394;-45
2021/09/21 00:23:36;;;;;;;7.13;5.13;;;;;;;;;;5054838;28;20792;-45
2021/09/21 00:26:02;;;;;;;16.13;4.87;;;;;;;;;;5054894;28;20423;-44
2021/09/21 00:28:28;;;;;;;5.47;4.73;;;;;;;;;;5054885;28;20463;-45
2021/09/21 00:30:57;;;;;;;17.53;6.07;;;;;;;;;;5054822;28;20440;-45
2021/09/21 00:33:23;;;;;;;6.03;4.67;;;;;;;;;;5054885;28;20398;-45
2021/09/21 00:35:53;;;;;;;5.83;4.80;;;;;;;;;;5054842;28;20500;-49
2021/09/21 00:38:20;;;;;;;5.20;4.70;;;;;;;;;;5054767;28;20409;-45
2021/09/21 00:40:46;;;;;;;6.13;5.53;;;;;;;;;;5054540;28;20445;-46
2021/09/21 00:43:13;;;;;;;7.70;5.43;;;;;;;;;;5054644;28;20409;-45
2021/09/21 00:45:39;;;;;;;7.50;5.50;;;;;;;;;;5054378;28;20502;-45
2021/09/21 00:48:06;;;;;;;6.00;4.60;;;;;;;;;;5054497;28;20452;-45
2021/09/21 00:50:32;;;;;;;8.43;5.93;;;;;;;;;;5054438;28;20472;-45
2021/09/21 00:53:00;;;;;;;9.07;5.50;;;;;;;;;;5054830;28;20418;-46
2021/09/21 00:55:27;;;;;;;5.93;5.40;;;;;;;;;;5054218;28;20433;-45
2021/09/21 00:57:53;;;;;;;7.43;5.43;;;;;;;;;;5054392;28;20419;-45
2021/09/21 01:00:20;;;;;;;7.43;5.37;;;;;;;;;;5054245;28;20885;-48
2021/09/21 01:02:46;;;;;;;8.30;6.00;;;;;;;;;;5053478;28;20407;-45
2021/09/21 01:05:13;;;;;;;5.33;4.70;;;;;;;;;;5054147;28;20406;-45
2021/09/21 01:07:39;;;;;;;7.50;5.60;;;;;;;;;;5053909;28;20509;-45
2021/09/21 01:10:07;;;;;;;6.97;5.80;;;;;;;;;;5053953;28;20457;-44
2021/09/21 01:12:34;;;;;;;6.13;5.03;;;;;;;;;;5054054;28;20431;-45
2021/09/21 01:15:00;;;;;;;8.37;5.37;;;;;;;;;;5053781;28;20778;-45
2021/09/21 01:17:26;;;;;;;7.90;5.47;;;;;;;;;;5053878;28;20450;-47
2021/09/21 01:19:52;;;;;;;8.07;5.67;;;;;;;;;;5053941;28;20445;-49
2021/09/21 01:22:18;;;;;;;5.40;4.90;;;;;;;;;;5053764;28;20414;-45
2021/09/21 01:24:44;;;;;;;12.43;5.67;;;;;;;;;;5053714;28;20413;-44
2021/09/21 01:27:11;;;;;;;7.87;6.23;;;;;;;;;;5053667;28;20515;-45
2021/09/21 01:29:37;;;;;;;10.87;6.37;;;;;;;;;;5053355;28;20494;-44
2021/09/21 01:32:04;;;;;;;9.70;6.20;;;;;;;;;;5053703;28;20397;-45
2021/09/21 01:34:30;;;;;;;7.87;5.57;;;;;;;;;;5053634;28;20420;-45
2021/09/21 01:36:56;;;;;;;9.07;5.47;;;;;;;;;;5053523;28;20413;-45
2021/09/21 01:39:24;;;;;;;8.13;6.10;;;;;;;;;;5053592;28;20921;-46
2021/09/21 01:41:50;;;;;;;8.67;5.90;;;;;;;;;;5053523;28;20398;-44
2021/09/21 01:44:17;;;;;;;6.73;5.50;;;;;;;;;;5053276;28;20406;-45
2021/09/21 01:46:44;;;;;;;8.80;6.43;;;;;;;;;;5053324;28;20522;-45
2021/09/21 01:49:12;;;;;;;14.60;5.50;;;;;;;;;;5053355;28;20452;-44
2021/09/21 01:51:41;;;;;;;7.73;6.27;;;;;;;;;;5053120;28;20489;-49
2021/09/21 01:59:21;;;;;;;7.00;5.97;;;;;;;;;;5053253;28;20400;-48
2021/09/21 02:01:47;;;;;;;6.70;5.97;;;;;;;;;;5053229;28;20733;-45
2021/09/21 02:04:14;;;;;;;10.53;6.20;;;;;;;;;;5052892;28;20405;-45
2021/09/21 02:06:41;;;;;;;9.50;6.30;;;;;;;;;;5053092;28;20436;-45
2021/09/21 02:09:09;;;;;;;8.13;5.80;;;;;;;;;;5052906;28;20465;-44
2021/09/21 02:11:36;;;;;;;6.67;5.97;;;;;;;;;;5052980;28;20889;-44
2021/09/21 02:14:02;;;;;;;7.73;6.00;;;;;;;;;;5052841;28;20893;-44
2021/09/21 02:16:29;;;;;;;7.30;5.87;;;;;;;;;;5052761;28;20422;-45
2021/09/21 02:18:55;;;;;;;10.27;6.03;;;;;;;;;;5052766;28;20429;-44
2021/09/21 02:21:21;;;;;;;9.93;5.90;;;;;;;;;;5052754;28;20402;-44
2021/09/21 02:23:48;;;;;;;9.50;6.20;;;;;;;;;;5052557;28;20409;-45
2021/09/21 02:26:14;;;;;;;9.53;6.77;;;;;;;;;;5052788;28;20547;-44
2021/09/21 02:28:40;;;;;;;8.63;6.10;;;;;;;;;;5052636;28;20964;-44
2021/09/21 02:31:06;;;;;;;9.80;6.90;;;;;;;;;;5052921;28;20403;-45
2021/09/21 02:33:32;;;;;;;8.57;6.50;;;;;;;;;;5052637;28;20425;-44
2021/09/21 02:35:58;;;;;;;7.30;5.93;;;;;;;;;;5052207;28;20771;-45
2021/09/21 02:38:24;;;;;;;8.97;7.53;;;;;;;;;;5052562;28;20452;-46
2021/09/21 02:40:50;;;;;;;9.40;6.80;;;;;;;;;;5051607;28;20493;-46
2021/09/21 02:43:16;;;;;;;9.30;8.20;;;;;;;;;;5052344;28;20492;-48
2021/09/21 02:45:41;;;;;;;9.63;7.10;;;;;;;;;;5052012;28;20409;-45
2021/09/21 02:48:07;;;;;;;10.93;6.93;;;;;;;;;;5052289;28;20393;-45
2021/09/21 02:50:34;;;;;;;8.80;6.90;;;;;;;;;;5052250;28;20436;-44
2021/09/21 02:53:00;;;;;;;7.63;6.00;;;;;;;;;;5052160;28;20484;-44
2021/09/21 02:55:26;;;;;;;7.90;7.10;;;;;;;;;;5051849;28;20547;-45
2021/09/21 02:57:52;;;;;;;10.40;7.70;;;;;;;;;;5052092;28;20417;-43
2021/09/21 03:00:22;;;;;;;10.70;7.63;;;;;;;;;;5052043;28;20492;-45
2021/09/21 03:02:49;;;;;;;8.40;7.37;;;;;;;;;;5051938;28;20405;-45
2021/09/21 03:05:23;;;;;;;11.50;7.90;;;;;;;;;;5051863;28;20401;-44
2021/09/21 03:08:02;;;;;;;9.17;7.50;;;;;;;;;;5051946;28;20438;-45
2021/09/21 03:10:43;;;;;;;8.30;6.57;;;;;;;;;;5052325;28;20453;-44
2021/09/21 03:18:26;;;;;;;10.50;7.33;;;;;;;;;;5051912;28;20828;-44
2021/09/21 03:20:53;;;;;;;11.40;7.50;;;;;;;;;;5051723;28;20888;-45
2021/09/21 03:23:19;;;;;;;10.33;6.03;;;;;;;;;;5051702;28;20401;-45
2021/09/21 03:25:45;;;;;;;16.13;8.20;;;;;;;;;;5051489;28;20419;-45
2021/09/21 03:28:11;;;;;;;12.70;8.10;;;;;;;;;;5051684;28;20401;-44
2021/09/21 03:30:37;;;;;;;11.33;8.03;;;;;;;;;;5051736;28;20951;-45
2021/09/21 03:33:03;;;;;;;9.53;7.17;;;;;;;;;;5051601;28;20451;-45
2021/09/21 03:35:29;;;;;;;12.33;8.47;;;;;;;;;;5051413;28;20394;-45
2021/09/21 03:37:55;;;;;;;11.20;8.00;;;;;;;;;;5051440;28;20427;-47
2021/09/21 03:40:22;;;;;;;8.83;7.03;;;;;;;;;;5051545;28;20404;-48
2021/09/21 03:42:48;;;;;;;11.67;8.07;;;;;;;;;;5051508;28;20905;-45
2021/09/21 03:45:14;;;;;;;11.67;7.50;;;;;;;;;;5051379;28;20410;-47
2021/09/21 03:47:40;;;;;;;11.20;8.10;;;;;;;;;;5051919;28;20437;-48
2021/09/21 03:50:06;;;;;;;10.73;8.50;;;;;;;;;;5051497;28;20794;-44
2021/09/21 03:52:32;;;;;;;10.10;7.37;;;;;;;;;;5054853;28;20878;-44
2021/09/21 03:54:58;;;;;;;11.23;8.50;;;;;;;;;;5055434;28;20908;-44
2021/09/21 03:57:24;;;;;;;9.27;8.10;;;;;;;;;;5055448;28;20428;-44
2021/09/21 03:59:50;;;;;;;12.03;8.17;;;;;;;;;;5055418;28;20842;-44
2021/09/21 04:02:16;;;;;;;11.03;7.37;;;;;;;;;;5055468;28;20492;-44
2021/09/21 04:04:42;;;;;;;15.70;8.40;;;;;;;;;;5055228;28;20409;-45
2021/09/21 04:07:08;;;;;;;10.13;8.10;;;;;;;;;;5055227;28;20431;-44
2021/09/21 04:09:34;;;;;;;11.40;8.00;;;;;;;;;;5055215;28;20452;-44
2021/09/21 04:12:00;;;;;;;12.47;7.63;;;;;;;;;;5055152;28;20397;-46
2021/09/21 04:14:26;;;;;;;11.40;8.57;;;;;;;;;;5055035;28;20492;-45
2021/09/21 04:16:52;;;;;;;11.43;7.53;;;;;;;;;;5055072;28;20492;-46
2021/09/21 04:19:18;;;;;;;13.43;7.90;;;;;;;;;;5055052;28;20823;-47
2021/09/21 04:21:44;;;;;;;11.30;8.17;;;;;;;;;;5055467;28;20397;-48
2021/09/21 04:24:10;;;;;;;11.57;8.83;;;;;;;;;;5054863;28;20407;-45
2021/09/21 04:26:36;;;;;;;11.03;8.67;;;;;;;;;;5054950;28;20429;-45
2021/09/21 04:29:02;;;;;;;10.20;7.93;;;;;;;;;;5054785;28;20454;-44
2021/09/21 04:31:28;;;;;;;10.83;7.47;;;;;;;;;;5054889;28;20415;-44
2021/09/21 04:33:55;;;;;;;11.10;8.93;;;;;;;;;;5054806;28;20409;-44
2021/09/21 04:36:21;;;;;;;13.00;7.70;;;;;;;;;;5054523;28;20475;-49
2021/09/21 04:38:47;;;;;;;10.70;8.23;;;;;;;;;;5054761;28;20885;-47
2021/09/21 04:41:14;;;;;;;15.47;8.73;;;;;;;;;;5054619;28;20401;-46
2021/09/21 04:43:40;;;;;;;11.10;8.60;;;;;;;;;;5054594;28;20458;-45
2021/09/21 04:46:08;;;;;;;10.03;8.40;;;;;;;;;;5054595;28;20765;-44
2021/09/21 04:48:34;;;;;;;9.47;7.90;;;;;;;;;;5054383;28;20449;-47
2021/09/21 04:51:00;;;;;;;13.17;8.30;;;;;;;;;;5054457;28;20401;-45
2021/09/21 04:53:26;;;;;;;11.53;7.80;;;;;;;;;;5054559;28;20432;-45
2021/09/21 04:55:53;;;;;;;11.10;8.20;;;;;;;;;;5054216;28;20990;-47
2021/09/21 04:58:18;;;;;;;10.23;8.03;;;;;;;;;;5054281;28;20402;-47
2021/09/21 05:00:44;;;;;;;10.10;8.13;;;;;;;;;;5054290;28;20394;-46
2021/09/21 05:03:10;;;;;;;12.20;8.33;;;;;;;;;;5053293;28;20424;-48
2021/09/21 05:05:36;;;;;;;12.40;8.77;;;;;;;;;;5054368;28;20924;-43
2021/09/21 05:08:03;;;;;;;11.90;8.67;;;;;;;;;;5054266;28;20400;-44
2021/09/21 05:10:31;;;;;;;13.83;8.73;;;;;;;;;;5054087;28;20456;-45
2021/09/21 05:12:57;;;;;;;14.57;9.40;;;;;;;;;;5054478;28;20406;-46
2021/09/21 05:15:23;;;;;;;9.67;7.47;;;;;;;;;;5053927;28;20401;-48
2021/09/21 05:17:49;;;;;;;13.00;8.03;;;;;;;;;;5053677;28;20447;-44
2021/09/21 05:20:15;;;;;;;10.90;8.50;;;;;;;;;;5054968;28;21060;-45
2021/09/21 05:22:41;;;;;;;14.00;8.00;;;;;;;;;;5053909;28;20400;-46
2021/09/21 05:25:08;;;;;;;9.10;7.83;;;;;;;;;;5053659;28;20405;-45
2021/09/21 05:27:34;;;;;;;11.93;8.00;;;;;;;;;;5053724;28;20413;-46
2021/09/21 05:29:59;;;;;;;8.80;7.50;;;;;;;;;;5053688;28;20511;-46
2021/09/21 05:32:25;;;;;;;12.60;8.70;;;;;;;;;;5053563;28;20405;-45
2021/09/21 05:34:51;;;;;;;10.97;8.17;;;;;;;;;;5053606;28;20447;-45
2021/09/21 05:37:17;;;;;;;11.87;8.53;;;;;;;;;;5053795;28;20960;-46
2021/09/21 05:39:43;;;;;;;10.53;8.20;;;;;;;;;;5053738;28;20875;-46
2021/09/21 05:42:09;;;;;;;13.43;8.50;;;;;;;;;;5053445;28;20547;-46
2021/09/21 05:44:35;;;;;;;9.60;8.60;;;;;;;;;;5053322;28;20414;-47
2021/09/21 05:47:01;;;;;;;11.23;8.40;;;;;;;;;;5053227;28;21001;-46
2021/09/21 05:49:27;;;;;;;12.00;7.50;;;;;;;;;;5053304;28;20487;-45
2021/09/21 05:51:53;;;;;;;18.03;8.70;;;;;;;;;;5053421;28;20771;-45
2021/09/21 05:54:19;;;;;;;13.00;9.47;;;;;;;;;;5053207;28;20840;-45
2021/09/21 05:56:45;;;;;;;17.13;9.63;;;;;;;;;;5053246;28;20427;-46
2021/09/21 05:59:11;;;;;;;16.70;11.57;;;;;;;;;;5053238;28;20411;-46
2021/09/21 06:01:37;;;;;;;12.27;8.33;;;;;;;;;;5053072;28;20494;-45
2021/09/21 06:04:03;;;;;;;11.47;9.23;;;;;;;;;;5053189;28;20434;-46
2021/09/21 06:06:29;;;;;;;14.50;9.10;;;;;;;;;;5052916;28;20425;-46
2021/09/21 06:08:55;;;;;;;19.13;9.90;;;;;;;;;;5052994;28;20875;-46
2021/09/21 06:11:27;;;;;;;16.80;9.20;;;;;;;;;;5052943;28;20438;-46
2021/09/21 06:13:55;;;;;;;10.20;8.27;;;;;;;;;;5052983;28;20463;-47
2021/09/21 06:16:21;;;;;;;13.87;9.63;;;;;;;;;;5052604;28;20450;-49
2021/09/21 06:18:47;;;;;;;12.03;8.03;;;;;;;;;;5052766;28;20429;-49
2021/09/21 06:21:13;;;;;;;11.40;9.00;;;;;;;;;;5052899;28;20498;-45
2021/09/21 06:23:39;;;;;;;14.87;9.90;;;;;;;;;;5052790;28;20405;-45
2021/09/21 06:26:05;;;;;;;18.30;11.00;;;;;;;;;;5052506;28;20429;-46
2021/09/21 06:28:31;;;;;;;18.00;9.63;;;;;;;;;;5052659;28;20488;-46
2021/09/21 06:30:57;;;;;;;14.43;10.13;;;;;;;;;;5052504;28;20401;-46
2021/09/21 06:33:24;;;;;;;14.30;8.73;;;;;;;;;;5052804;28;20788;-46
2021/09/21 06:35:50;;;;;;;11.70;8.90;;;;;;;;;;5052371;28;20967;-46
2021/09/21 06:38:16;;;;;;;10.17;7.87;;;;;;;;;;5052608;28;20895;-46
2021/09/21 06:40:42;;;;;;;15.23;8.00;;;;;;;;;;5052636;28;20406;-46
2021/09/21 06:43:08;;;;;;;11.93;7.87;;;;;;;;;;5052314;28;20425;-47
2021/09/21 06:45:34;;;;;;;8.37;7.53;;;;;;;;;;5057736;28;20395;-46
2021/09/21 06:48:00;;;;;;;12.57;6.80;;;;;;;;;;5057614;28;20408;-47
2021/09/21 06:50:26;;;;;;;9.03;7.73;;;;;;;;;;5052630;28;20449;-47
2021/09/21 06:52:52;;;;;;;10.20;6.87;;;;;;;;;;5051982;28;20394;-47
2021/09/21 06:55:18;;;;;;;12.70;6.80;;;;;;;;;;5051992;28;20775;-46
2021/09/21 06:57:51;;;;;;;10.20;7.60;;;;;;;;;;5050162;28;20502;-49
2021/09/21 07:00:18;;;;;;;8.50;7.13;;;;;;;;;;5050151;28;20407;-47
2021/09/21 07:02:47;;;;;;;15.67;6.90;;;;;;;;;;5050178;28;20404;-48
2021/09/21 07:05:13;;;;;;;8.80;6.83;;;;;;;;;;5051071;28;20450;-49
2021/09/21 07:07:43;;;;;;;10.70;6.43;;;;;;;;;;5051680;28;20427;-47
2021/09/21 07:10:09;;;;;;;9.70;6.60;;;;;;;;;;5051896;28;20531;-48
2021/09/21 07:12:35;;;;;;;10.90;7.00;;;;;;;;;;5051866;28;20402;-47
2021/09/21 07:15:01;;;;;;;14.90;8.63;;;;;;;;;;5051764;28;20397;-50
2021/09/21 07:17:27;;;;;;;10.60;9.00;;;;;;;;;;5051777;28;20475;-48
2021/09/21 07:19:53;;;;;;;10.63;8.20;;;;;;;;;;5051849;28;20406;-46
2021/09/21 07:22:19;;;;;;;10.83;8.57;;;;;;;;;;5051772;28;20484;-46
2021/09/21 07:24:45;;;;;;;9.10;7.90;;;;;;;;;;5051667;28;20432;-48
2021/09/21 07:27:11;;;;;;;10.60;7.53;;;;;;;;;;5051294;28;20413;-47
2021/09/21 07:29:37;;;;;;;10.10;7.53;;;;;;;;;;5051628;28;20960;-46
2021/09/21 07:32:03;;;;;;;9.63;7.60;;;;;;;;;;5051921;28;20448;-46
2021/09/21 07:34:29;;;;;;;11.57;7.30;;;;;;;;;;5051564;28;20488;-48
2021/09/21 07:36:55;;;;;;;8.50;7.40;;;;;;;;;;5051614;28;20501;-48
2021/09/21 07:39:21;;;;;;;11.60;8.50;;;;;;;;;;5051621;28;20405;-47
2021/09/21 07:41:47;;;;;;;17.40;8.20;;;;;;;;;;5051607;28;20408;-47
2021/09/21 07:44:13;;;;;;;9.50;7.20;;;;;;;;;;5051600;28;20401;-47
2021/09/21 07:46:39;;;;;;;11.00;7.00;;;;;;;;;;5051493;28;20467;-50
2021/09/21 07:49:05;;;;;;;10.53;8.40;;;;;;;;;;5051563;28;20542;-47
2021/09/21 07:51:31;;;;;;;6.87;6.20;;;;;;;;;;5051609;28;20820;-46
2021/09/21 07:53:57;;;;;;;9.50;6.50;;;;;;;;;;5051483;28;20393;-48
2021/09/21 07:56:23;;;;;;;9.90;6.87;;;;;;;;;;5051204;28;20927;-47
2021/09/21 07:58:50;;;;;;;10.03;7.00;;;;;;;;;;5051444;28;20913;-47
2021/09/21 08:01:16;;;;;;;11.33;6.70;;;;;;;;;;5051725;28;20409;-47
2021/09/21 08:03:42;;;;;;;9.80;6.93;;;;;;;;;;5051483;28;20405;-47
2021/09/21 08:06:09;;;;;;;10.57;6.57;;;;;;;;;;5051215;28;20425;-48
2021/09/21 08:08:38;;;;;;;11.27;7.87;;;;;;;;;;5051291;28;20412;-47
2021/09/21 08:11:05;;;;;;;10.17;6.77;;;;;;;;;;5051377;28;20888;-47
2021/09/21 08:13:31;;;;;;;8.97;7.83;;;;;;;;;;5051340;28;20435;-49
2021/09/21 08:15:57;;;;;;;10.50;7.70;;;;;;;;;;5051176;28;20425;-47
2021/09/21 08:18:23;;;;;;;11.43;8.50;;;;;;;;;;5051209;28;20419;-47
2021/09/21 08:20:49;;;;;;;11.83;7.77;;;;;;;;;;5051234;28;20406;-49
2021/09/21 08:23:15;;;;;;;8.23;6.87;;;;;;;;;;5051209;28;20433;-48
2021/09/21 08:25:41;;;;;;;11.43;8.73;;;;;;;;;;5050995;28;20401;-50
2021/09/21 08:28:07;;;;;;;9.50;7.90;;;;;;;;;;5051183;28;20890;-46
2021/09/21 08:30:33;;;;;;;6.80;5.93;;;;;;;;;;5051186;28;20889;-46
2021/09/21 08:33:00;;;;;;;7.70;6.73;;;;;;;;;;5051216;28;20412;-46
2021/09/21 08:35:26;;;;;;;9.10;7.00;;;;;;;;;;5051045;28;20402;-46
2021/09/21 08:37:52;;;;;;;8.37;7.43;;;;;;;;;;5051607;28;20432;-47
2021/09/21 08:40:18;;;;;;;10.47;7.40;;;;;;;;;;5054778;28;20467;-46
2021/09/21 08:42:44;;;;;;;9.97;6.53;;;;;;;;;;5054728;28;20440;-47
2021/09/21 08:45:12;;;;;;;10.77;7.03;;;;;;;;;;5054665;28;20405;-47
2021/09/21 08:47:39;;;;;;;12.03;6.60;;;;;;;;;;5054758;28;20456;-47
2021/09/21 08:50:06;;;;;;;8.33;5.83;;;;;;;;;;5065190;28;20486;-47
2021/09/21 08:52:32;;;;;;;10.90;5.67;;;;;;;;;;5072009;28;20511;-47
2021/09/21 08:54:58;;;;;;;7.03;6.30;;;;;;;;;;5073218;28;20911;-47
2021/09/21 08:57:25;;;;;;;5.80;4.90;;;;;;;;;;5074085;28;20428;-47
2021/09/21 08:59:56;;;;;;;5.53;5.03;;;;;;;;;;5074121;28;20446;-48
2021/09/21 09:02:23;;;;;;;7.87;4.40;;;;;;;;;;5073834;28;20405;-47
2021/09/21 09:04:56;;;;;;;5.10;4.27;;;;;;;;;;5073995;28;20405;-47
2021/09/21 09:07:22;;;;;;;5.70;4.90;;;;;;;;;;5074290;28;20503;-47
2021/09/21 09:09:48;;;;;;;5.63;5.13;;;;;;;;;;5074078;28;21014;-46
2021/09/21 09:12:14;;;;;;;4.80;4.40;;;;;;;;;;5074091;28;20912;-48
2021/09/21 09:14:40;;;;;;;9.30;4.77;;;;;;;;;;5074028;28;20899;-47
2021/09/21 09:17:06;;;;;;;5.83;5.00;;;;;;;;;;5073997;28;20451;-46
2021/09/21 09:19:35;;;;;;;9.80;5.40;;;;;;;;;;5073292;28;20401;-47
2021/09/21 09:22:06;;;;;;;5.90;4.20;;;;;;;;;;5073206;28;20408;-50
2021/09/21 09:24:32;;;;;;;5.70;4.20;;;;;;;;;;5073903;28;20454;-47
2021/09/21 09:26:58;;;;;;;5.83;5.00;;;;;;;;;;5073946;28;20423;-48
2021/09/21 09:29:24;;;;;;;5.20;4.60;;;;;;;;;;5074042;28;20967;-47
2021/09/21 09:31:50;;;;;;;6.93;4.60;;;;;;;;;;5073760;28;20396;-47
2021/09/21 09:34:27;;;;;;;6.13;4.30;;;;;;;;;;5073539;28;21031;-48
2021/09/21 09:36:54;;;;;;;5.03;4.30;;;;;;;;;;5072523;28;20788;-47
2021/09/21 09:39:22;;;;;;;4.97;4.40;;;;;;;;;;5073678;28;20424;-48
2021/09/21 09:41:49;;;;;;;4.60;3.97;;;;;;;;;;5073408;28;20484;-50
2021/09/21 09:44:18;;;;;;;3.83;2.80;;;;;;;;;;5072368;28;20400;-49
2021/09/21 09:46:52;;;;;;;7.43;3.33;;;;;;;;;;5072190;28;20424;-47
2021/09/21 09:49:29;;;;;;;5.23;3.30;;;;;;;;;;5073014;28;20975;-48
2021/09/21 09:51:57;;;;;;;4.90;3.50;;;;;;;;;;5073309;28;20404;-47
2021/09/21 09:54:23;;;;;;;3.80;3.17;;;;;;;;;;5073415;28;20491;-47
2021/09/21 09:56:49;;;;;;;4.53;4.10;;;;;;;;;;5072772;28;20594;-48
2021/09/21 09:59:16;;;;;;;10.47;4.30;;;;;;;;;;5073250;28;20624;-47
2021/09/21 10:01:43;;;;;;;3.50;3.20;;;;;;;;;;5073267;28;20413;-47
2021/09/21 10:04:10;;;;;;;3.80;3.50;;;;;;;;;;5073189;28;20460;-47
2021/09/21 10:06:36;;;;;;;4.17;3.77;;;;;;;;;;5072816;28;20439;-47
2021/09/21 10:09:02;;;;;;;3.10;2.80;;;;;;;;;;5073064;28;20793;-47
2021/09/21 10:11:29;;;;;;;4.23;3.23;;;;;;;;;;5072809;28;20396;-48
2021/09/21 10:13:58;;;;;;;5.33;3.37;;;;;;;;;;5072937;28;20872;-47
2021/09/21 10:16:24;;;;;;;7.80;3.67;;;;;;;;;;5072628;28;20426;-48
2021/09/21 10:18:54;;;;;;;7.00;3.00;;;;;;;;;;5072840;28;20430;-48
2021/09/21 10:21:29;;;;;;;3.00;2.57;;;;;;;;;;5072717;28;20493;-48
2021/09/21 10:23:56;;;;;;;3.17;2.87;;;;;;;;;;5072777;28;20395;-48
2021/09/21 10:26:24;;;;;;;7.53;3.03;;;;;;;;;;5072335;28;20419;-49
2021/09/21 10:28:50;;;;;;;2.93;2.70;;;;;;;;;;5072701;28;21036;-47
2021/09/21 10:31:18;;;;;;;11.03;3.33;;;;;;;;;;5072861;28;20404;-49
2021/09/21 10:33:44;;;;;;;2.80;2.60;;;;;;;;;;5072530;28;20458;-47
2021/09/21 10:36:20;;;;;;;2.70;2.50;;;;;;;;;;5072280;28;20844;-48
2021/09/21 10:39:04;;;;;;;2.63;2.43;;;;;;;;;;5065887;28;20416;-47
2021/09/21 10:41:30;;;;;;;4.80;2.43;;;;;;;;;;5065699;28;20439;-47
2021/09/21 10:43:57;;;;;;;4.10;2.53;;;;;;;;;;5072466;28;20405;-47
2021/09/21 10:46:23;;;;;;;2.80;2.60;;;;;;;;;;5072101;28;20793;-49
2021/09/21 10:48:49;;;;;;;3.70;2.80;;;;;;;;;;5072191;28;20892;-50
2021/09/21 10:51:15;;;;;;;2.70;2.50;;;;;;;;;;5072106;28;20452;-47
2021/09/21 10:53:42;;;;;;;4.37;2.77;;;;;;;;;;5072233;28;20397;-47
2021/09/21 10:56:10;;;;;;;2.83;2.63;;;;;;;;;;5071970;28;20430;-47
2021/09/21 10:58:36;;;;;;;4.67;2.83;;;;;;;;;;5072223;28;20394;-51
2021/09/21 11:01:03;;;;;;;3.67;2.83;;;;;;;;;;5071425;28;20883;-49
2021/09/21 11:03:31;;;;;;;7.77;3.10;;;;;;;;;;5071867;28;20400;-49
2021/09/21 11:05:57;;;;;;;6.23;3.40;;;;;;;;;;5071530;28;20790;-48
2021/09/21 11:08:31;;;;;;;3.20;2.90;;;;;;;;;;5071583;28;20887;-48
2021/09/21 11:11:00;;;;;;;3.60;3.30;;;;;;;;;;5071100;28;20418;-47
2021/09/21 11:13:36;;;;;;;3.87;3.20;;;;;;;;;;5072018;28;20411;-48
2021/09/21 11:16:04;;;;;;;6.17;3.97;;;;;;;;;;5071719;28;20429;-48
2021/09/21 11:18:31;;;;;;;3.13;2.80;;;;;;;;;;5071943;28;20526;-48
2021/09/21 11:20:58;;;;;;;2.83;2.63;;;;;;;;;;5072495;28;20439;-51
2021/09/21 11:23:26;;;;;;;2.90;2.60;;;;;;;;;;5071919;28;20439;-52
2021/09/21 11:25:55;;;;;;;2.83;2.53;;;;;;;;;;5071551;28;20433;-50
2021/09/21 11:28:21;;;;;;;3.40;3.10;;;;;;;;;;5071795;28;20420;-51
2021/09/21 11:30:47;;;;;;;3.27;2.80;;;;;;;;;;5072153;28;20516;-52
2021/09/21 11:33:14;;;;;;;2.60;2.40;;;;;;;;;;5071763;28;20884;-51
2021/09/21 11:35:44;;;;;;;3.33;3.10;;;;;;;;;;5071441;28;20803;-51
2021/09/21 11:38:10;;;;;;;3.37;3.00;;;;;;;;;;5071589;28;20392;-51
2021/09/21 11:40:37;;;;;;;2.93;2.63;;;;;;;;;;5071608;28;20408;-51
2021/09/21 11:43:04;;;;;;;4.40;3.07;;;;;;;;;;5071694;28;20403;-52
2021/09/21 11:45:30;;;;;;;3.27;2.97;;;;;;;;;;5071330;28;20411;-50
2021/09/21 11:47:56;;;;;;;2.90;2.70;;;;;;;;;;5071543;28;20441;-50
2021/09/21 11:50:24;;;;;;;2.83;2.63;;;;;;;;;;5071508;28;20537;-50
2021/09/21 11:52:52;;;;;;;4.90;2.70;;;;;;;;;;5071860;28;20404;-51
2021/09/21 11:55:19;;;;;;;4.20;3.30;;;;;;;;;;5071392;28;20419;-50
2021/09/21 11:57:46;;;;;;;3.30;3.00;;;;;;;;;;5071456;28;20441;-51
2021/09/21 12:00:21;;;;;;;3.43;3.03;;;;;;;;;;5071460;28;20399;-52
2021/09/21 12:02:51;;;;;;;5.80;2.70;;;;;;;;;;5071490;28;20405;-51
2021/09/21 12:05:17;;;;;;;5.47;3.47;;;;;;;;;;5071342;28;20414;-52
2021/09/21 12:07:43;;;;;;;3.50;3.17;;;;;;;;;;5071252;28;20425;-51
2021/09/21 12:10:10;;;;;;;3.20;2.93;;;;;;;;;;5071429;28;20444;-52
2021/09/21 12:12:36;;;;;;;4.07;3.20;;;;;;;;;;5072873;28;20764;-50
2021/09/21 12:15:02;;;;;;;4.87;3.20;;;;;;;;;;5075087;28;20892;-50
2021/09/21 12:17:28;;;;;;;3.20;2.90;;;;;;;;;;5075109;28;20498;-51
2021/09/21 12:19:58;;;;;;;3.43;3.03;;;;;;;;;;5075148;28;20797;-51
2021/09/21 12:22:25;;;;;;;3.20;3.00;;;;;;;;;;5075058;28;20489;-49
2021/09/21 12:24:51;;;;;;;6.03;3.00;;;;;;;;;;5074778;28;20408;-50
2021/09/21 12:27:17;;;;;;;4.87;2.57;;;;;;;;;;5074910;28;20421;-50
2021/09/21 12:29:43;;;;;;;3.00;2.50;;;;;;;;;;5074848;28;20449;-49
2021/09/21 12:32:09;;;;;;;6.70;2.53;;;;;;;;;;5074877;28;20398;-52
2021/09/21 12:34:37;;;;;;;4.57;2.80;;;;;;;;;;5074868;28;20403;-52
2021/09/21 12:37:03;;;;;;;2.90;2.53;;;;;;;;;;5074597;28;20435;-52
2021/09/21 12:39:34;;;;;;;4.20;3.07;;;;;;;;;;5074574;28;20435;-51
2021/09/21 12:42:01;;;;;;;3.10;2.80;;;;;;;;;;5074664;28;20761;-51
2021/09/21 12:44:28;;;;;;;3.63;2.30;;;;;;;;;;5074735;28;20895;-52
2021/09/21 12:46:56;;;;;;;3.40;2.77;;;;;;;;;;5074401;28;20485;-51
2021/09/21 12:49:23;;;;;;;2.47;2.27;;;;;;;;;;5074576;28;20447;-51
2021/09/21 12:51:50;;;;;;;2.57;2.37;;;;;;;;;;5074445;28;20910;-51
2021/09/21 12:54:18;;;;;;;2.53;2.33;;;;;;;;;;5074501;28;20396;-52
2021/09/21 12:56:48;;;;;;;3.63;2.83;;;;;;;;;;5074149;28;20781;-52
2021/09/21 12:59:16;;;;;;;2.93;2.67;;;;;;;;;;5074386;28;20450;-51
2021/09/21 13:01:43;;;;;;;5.93;3.37;;;;;;;;;;5074363;28;20938;-51
2021/09/21 13:04:10;;;;;;;5.30;3.10;;;;;;;;;;5074509;28;20896;-52
2021/09/21 13:06:36;;;;;;;3.00;2.80;;;;;;;;;;5073864;28;20425;-50
2021/09/21 13:09:03;;;;;;;4.80;2.87;;;;;;;;;;5074087;28;20825;-49
2021/09/21 13:11:29;;;;;;;3.67;3.00;;;;;;;;;;5074110;28;20405;-51
2021/09/21 13:13:55;;;;;;;4.40;2.67;;;;;;;;;;5074307;28;20401;-52
2021/09/21 13:16:21;;;;;;;5.60;3.20;;;;;;;;;;5073908;28;20504;-50
2021/09/21 13:18:48;;;;;;;3.40;2.93;;;;;;;;;;5074157;28;20416;-52
2021/09/21 13:21:14;;;;;;;3.17;2.87;;;;;;;;;;5073875;28;20404;-52
2021/09/21 13:23:40;;;;;;;3.50;3.23;;;;;;;;;;5073403;28;20410;-52
2021/09/21 13:26:06;;;;;;;4.80;3.07;;;;;;;;;;5073839;28;20786;-52
2021/09/21 13:28:33;;;;;;;4.33;3.00;;;;;;;;;;5073870;28;20398;-51
2021/09/21 13:30:59;;;;;;;2.83;2.63;;;;;;;;;;5073921;28;20498;-49
2021/09/21 13:33:25;;;;;;;3.13;2.40;;;;;;;;;;5073874;28;20403;-52
2021/09/21 13:35:51;;;;;;;2.90;2.70;;;;;;;;;;5073541;28;20850;-51
2021/09/21 13:38:18;;;;;;;4.17;2.30;;;;;;;;;;5073935;28;20407;-51
2021/09/21 13:40:45;;;;;;;2.90;2.70;;;;;;;;;;5073699;28;20843;-52
2021/09/21 13:43:11;;;;;;;2.60;2.40;;;;;;;;;;5074017;28;20487;-50
2021/09/21 13:45:37;;;;;;;3.20;2.90;;;;;;;;;;5073423;28;20503;-51
2021/09/21 13:48:03;;;;;;;6.30;3.33;;;;;;;;;;5074144;28;20434;-50
2021/09/21 13:50:30;;;;;;;3.97;3.40;;;;;;;;;;5073333;28;20467;-52
2021/09/21 13:52:56;;;;;;;3.00;2.80;;;;;;;;;;5073495;28;20447;-50
2021/09/21 13:55:22;;;;;;;2.80;2.60;;;;;;;;;;5073280;28;20400;-51
2021/09/21 13:57:49;;;;;;;2.80;2.60;;;;;;;;;;5068412;28;20955;-52
2021/09/21 14:00:17;;;;;;;4.50;2.40;;;;;;;;;;5063047;28;20412;-51
2021/09/21 14:02:44;;;;;;;3.30;3.00;;;;;;;;;;5073100;28;20496;-51
2021/09/21 14:05:10;;;;;;;3.67;2.77;;;;;;;;;;5072817;28;20432;-51
2021/09/21 14:07:37;;;;;;;2.80;2.60;;;;;;;;;;5072935;28;20523;-51
2021/09/21 14:10:05;;;;;;;3.20;2.60;;;;;;;;;;5073030;28;20539;-49
2021/09/21 14:12:31;;;;;;;3.20;2.40;;;;;;;;;;5072887;28;20487;-51
2021/09/21 14:15:00;;;;;;;4.00;3.00;;;;;;;;;;5072888;28;20402;-50
2021/09/21 14:17:26;;;;;;;3.10;2.00;;;;;;;;;;5072635;28;20443;-50
2021/09/21 14:19:52;;;;;;;3.00;2.60;;;;;;;;;;5072809;28;20412;-52
2021/09/21 14:22:18;;;;;;;3.97;2.30;;;;;;;;;;5072762;28;20405;-51
2021/09/21 14:24:44;;;;;;;2.47;2.27;;;;;;;;;;5072705;28;20415;-51
2021/09/21 14:27:10;;;;;;;5.70;2.67;;;;;;;;;;5072454;28;20420;-51
2021/09/21 14:29:36;;;;;;;4.47;3.40;;;;;;;;;;5072477;28;20448;-50
2021/09/21 14:32:04;;;;;;;3.00;2.47;;;;;;;;;;5072446;28;20814;-51
2021/09/21 14:34:30;;;;;;;2.77;2.30;;;;;;;;;;5072581;28;20427;-51
2021/09/21 14:36:57;;;;;;;4.87;2.73;;;;;;;;;;5071303;28;20420;-50
2021/09/21 14:39:25;;;;;;;3.20;2.73;;;;;;;;;;5072546;28;20396;-51
2021/09/21 14:41:51;;;;;;;2.70;2.50;;;;;;;;;;5072445;28;20411;-50
2021/09/21 14:44:17;;;;;;;3.10;2.73;;;;;;;;;;5072259;28;20412;-49
2021/09/21 14:46:43;;;;;;;3.00;2.73;;;;;;;;;;5071903;28;20454;-50